createdAt,value
2018-07-05T00:01:56.267Z,63.50
2018-07-05T00:04:28.909Z,63.80
2018-07-05T00:07:01.585Z,64.50
2018-07-05T00:09:34.178Z,64.50
2018-07-05T00:12:06.742Z,64.30
2018-07-05T00:14:39.465Z,64.50
2018-07-05T00:17:12.139Z,64.40
2018-07-05T00:19:44.886Z,65.00
2018-07-05T00:22:19.352Z,65.30
2018-07-05T00:27:19.010Z,65.10
2018-07-05T00:29:51.693Z,65.70
2018-07-05T00:32:24.421Z,65.70
2018-07-05T00:34:57.068Z,65.90
2018-07-05T00:37:29.766Z,66.40
2018-07-05T00:40:03.049Z,66.30
2018-07-05T00:42:35.596Z,66.60
2018-07-05T00:45:08.225Z,66.70
2018-07-05T00:47:41.117Z,67.20
2018-07-05T00:50:13.579Z,66.80
2018-07-05T00:52:46.268Z,67.30
2018-07-05T00:55:18.717Z,67.20
2018-07-05T00:57:51.430Z,67.80
2018-07-05T01:00:24.013Z,67.90
2018-07-05T01:02:56.710Z,68.10
2018-07-05T01:05:29.324Z,67.80
2018-07-05T01:08:02.001Z,68.40
2018-07-05T01:10:34.749Z,69.20
2018-07-05T01:13:07.479Z,69.10
2018-07-05T01:15:40.171Z,69.20
2018-07-05T01:18:12.824Z,69.20
2018-07-05T01:20:45.612Z,69.40
2018-07-05T01:23:18.785Z,69.80
2018-07-05T01:25:51.625Z,70.10
2018-07-05T01:28:24.277Z,69.90
2018-07-05T01:30:56.853Z,69.90
2018-07-05T01:33:30.109Z,69.80
2018-07-05T01:36:02.876Z,70.00
2018-07-05T01:38:36.211Z,70.40
2018-07-05T01:41:08.804Z,70.60
2018-07-05T01:43:41.479Z,70.10
2018-07-05T01:46:14.161Z,70.90
2018-07-05T01:48:47.888Z,71.20
2018-07-05T01:51:20.384Z,71.30
2018-07-05T01:53:53.072Z,71.50
2018-07-05T01:56:25.840Z,71.30
2018-07-05T01:58:58.355Z,71.80
2018-07-05T02:01:31.413Z,72.00
2018-07-05T02:04:03.977Z,72.30
2018-07-05T02:06:36.616Z,72.50
2018-07-05T02:09:09.744Z,71.80
2018-07-05T02:11:42.224Z,72.40
2018-07-05T02:14:15.585Z,71.90
2018-07-05T02:16:48.136Z,72.30
2018-07-05T02:19:21.786Z,72.30
2018-07-05T02:21:54.325Z,72.30
2018-07-05T02:24:27.243Z,73.20
2018-07-05T02:26:59.836Z,73.20
2018-07-05T02:29:32.433Z,72.60
2018-07-05T02:32:05.056Z,72.40
2018-07-05T02:34:37.721Z,72.60
2018-07-05T02:37:16.216Z,72.30
2018-07-05T02:39:49.074Z,73.20
2018-07-05T02:42:21.763Z,72.40
2018-07-05T02:44:54.800Z,72.40
2018-07-05T02:47:27.339Z,72.50
2018-07-05T02:50:00.057Z,73.10
2018-07-05T02:52:32.738Z,72.90
2018-07-05T02:55:05.364Z,72.90
2018-07-05T02:57:38.011Z,73.20
2018-07-05T03:00:10.648Z,73.20
2018-07-05T03:02:43.348Z,73.30
2018-07-05T03:05:15.970Z,72.90
2018-07-05T03:07:49.254Z,73.40
2018-07-05T03:10:22.184Z,73.80
2018-07-05T03:12:54.838Z,73.10
2018-07-05T03:15:27.688Z,74.30
2018-07-05T03:18:00.304Z,74.90
2018-07-05T03:20:32.928Z,74.80
2018-07-05T03:23:05.713Z,75.20
2018-07-05T03:25:38.360Z,75.60
2018-07-05T03:28:11.631Z,75.50
2018-07-05T03:30:44.111Z,74.70
2018-07-05T03:33:17.269Z,75.00
2018-07-05T03:35:50.375Z,74.70
2018-07-05T03:38:23.146Z,75.10
2018-07-05T03:40:55.737Z,75.30
2018-07-05T03:43:28.459Z,75.00
2018-07-05T03:46:01.121Z,75.10
2018-07-05T03:48:34.499Z,75.60
2018-07-05T03:51:07.149Z,75.50
2018-07-05T03:53:41.828Z,75.40
2018-07-05T03:56:14.437Z,75.50
2018-07-05T03:58:47.074Z,75.70
2018-07-05T04:01:20.760Z,75.50
2018-07-05T04:03:55.050Z,75.40
2018-07-05T04:06:28.084Z,74.60
2018-07-05T04:09:01.200Z,74.10
2018-07-05T04:11:33.726Z,73.30
2018-07-05T04:14:06.460Z,72.80
2018-07-05T04:16:38.925Z,72.10
2018-07-05T04:19:11.387Z,71.40
2018-07-05T04:21:44.009Z,70.70
2018-07-05T04:24:16.845Z,70.10
2018-07-05T04:26:49.490Z,69.00
2018-07-05T04:29:22.724Z,68.40
2018-07-05T04:31:55.970Z,67.80
2018-07-05T04:34:28.697Z,68.40
2018-07-05T04:37:01.473Z,68.00
2018-07-05T04:39:33.991Z,66.40
2018-07-05T04:42:06.656Z,65.20
2018-07-05T04:44:39.317Z,63.70
2018-07-05T04:47:11.904Z,63.40
2018-07-05T04:49:44.446Z,62.80
2018-07-05T04:52:17.197Z,61.70
2018-07-05T04:54:49.805Z,62.80
2018-07-05T04:57:22.469Z,61.20
2018-07-05T04:59:55.065Z,60.40
2018-07-05T05:02:27.778Z,60.00
2018-07-05T05:05:00.467Z,60.50
2018-07-05T05:07:33.140Z,59.20
2018-07-05T05:10:06.827Z,59.20
2018-07-05T05:12:39.752Z,58.30
2018-07-05T05:15:12.416Z,57.60
2018-07-05T05:17:45.051Z,57.30
2018-07-05T05:20:17.812Z,57.10
2018-07-05T05:22:50.503Z,56.20
2018-07-05T05:25:23.333Z,55.60
2018-07-05T05:27:56.473Z,55.50
2018-07-05T05:30:29.032Z,55.20
2018-07-05T05:33:01.734Z,56.00
2018-07-05T05:35:34.397Z,55.20
2018-07-05T05:38:07.083Z,55.20
2018-07-05T05:40:39.752Z,55.60
2018-07-05T05:43:12.559Z,53.70
2018-07-05T05:45:45.020Z,53.40
2018-07-05T05:48:17.731Z,53.40
2018-07-05T05:50:50.601Z,52.70
2018-07-05T05:53:23.166Z,53.10
2018-07-05T05:55:55.605Z,52.60
2018-07-05T05:58:28.372Z,52.20
2018-07-05T06:01:01.089Z,52.00
2018-07-05T06:03:34.116Z,52.10
2018-07-05T06:06:06.635Z,51.90
2018-07-05T06:08:39.917Z,51.90
2018-07-05T06:11:12.524Z,49.80
2018-07-05T06:13:45.222Z,50.10
2018-07-05T06:16:18.473Z,49.10
2018-07-05T06:18:50.915Z,49.50
2018-07-05T06:21:23.575Z,49.90
2018-07-05T06:23:56.838Z,50.40
2018-07-05T06:26:29.382Z,50.20
2018-07-05T06:29:01.993Z,49.60
2018-07-05T06:31:34.660Z,49.40
2018-07-05T06:34:07.351Z,49.20
2018-07-05T06:36:39.878Z,48.70
2018-07-05T06:39:13.064Z,48.90
2018-07-05T06:41:45.951Z,48.40
2018-07-05T06:44:18.468Z,48.50
2018-07-05T06:46:51.823Z,48.70
2018-07-05T06:49:24.476Z,48.80
2018-07-05T06:51:57.024Z,49.60
2018-07-05T06:54:29.693Z,49.30
2018-07-05T06:57:02.339Z,49.60
2018-07-05T06:59:35.063Z,49.90
2018-07-05T07:02:08.320Z,49.20
2018-07-05T07:04:40.814Z,50.40
2018-07-05T07:07:13.414Z,50.20
2018-07-05T07:09:46.201Z,50.20
2018-07-05T07:12:18.669Z,49.90
2018-07-05T07:14:51.592Z,50.00
2018-07-05T07:17:24.825Z,50.10
2018-07-05T07:19:57.370Z,49.50
2018-07-05T07:22:30.101Z,48.20
2018-07-05T07:25:03.169Z,47.70
2018-07-05T07:27:36.185Z,47.00
2018-07-05T07:30:08.735Z,47.30
2018-07-05T07:32:42.076Z,47.20
2018-07-05T07:35:15.323Z,45.70
2018-07-05T07:37:47.884Z,45.50
2018-07-05T07:40:20.913Z,45.40
2018-07-05T07:42:47.422Z,45.70
2018-07-05T07:45:13.839Z,45.70
2018-07-05T07:47:40.260Z,44.50
2018-07-05T07:50:06.661Z,45.60
2018-07-05T07:52:33.157Z,44.40
2018-07-05T07:54:59.585Z,44.10
2018-07-05T07:57:25.996Z,42.60
2018-07-05T07:59:52.852Z,43.10
2018-07-05T08:02:19.264Z,43.30
2018-07-05T08:04:46.244Z,43.40
2018-07-05T08:07:13.052Z,42.00
2018-07-05T08:09:39.998Z,42.00
2018-07-05T08:12:07.541Z,42.60
2018-07-05T08:14:33.929Z,41.60
2018-07-05T08:17:00.743Z,42.60
2018-07-05T08:19:27.580Z,41.70
2018-07-05T08:21:53.973Z,41.70
2018-07-05T08:24:21.217Z,41.30
2018-07-05T08:26:47.650Z,42.10
2018-07-05T08:29:14.050Z,41.10
2018-07-05T08:31:40.491Z,41.70
2018-07-05T08:34:06.890Z,41.80
2018-07-05T08:36:33.317Z,42.20
2018-07-05T08:39:00.039Z,42.90
2018-07-05T08:41:26.605Z,43.20
2018-07-05T08:43:53.353Z,42.80
2018-07-05T08:46:20.261Z,42.80
2018-07-05T08:48:46.661Z,43.40
2018-07-05T08:51:13.751Z,43.20
2018-07-05T08:53:40.125Z,42.60
2018-07-05T08:56:06.520Z,42.10
2018-07-05T08:58:32.902Z,42.10
2018-07-05T09:00:59.324Z,42.80
2018-07-05T09:03:25.759Z,43.10
2018-07-05T09:05:52.813Z,41.90
2018-07-05T09:08:19.222Z,42.10
2018-07-05T09:10:45.944Z,43.20
2018-07-05T09:13:12.448Z,43.20
2018-07-05T09:15:38.860Z,41.80
2018-07-05T09:18:05.353Z,41.70
2018-07-05T09:22:59.140Z,42.80
2018-07-05T09:25:25.594Z,43.10
2018-07-05T09:27:52.001Z,42.60
2018-07-05T09:30:18.437Z,43.00
2018-07-05T09:32:44.840Z,42.40
2018-07-05T09:35:11.242Z,41.40
2018-07-05T09:37:37.753Z,41.40
2018-07-05T09:40:04.105Z,40.70
2018-07-05T09:42:30.513Z,41.00
2018-07-05T09:44:56.932Z,40.80
2018-07-05T09:47:23.365Z,41.40
2018-07-05T09:49:49.761Z,40.60
2018-07-05T09:52:16.188Z,40.50
2018-07-05T09:54:42.604Z,41.60
2018-07-05T09:57:09.570Z,41.00
2018-07-05T09:59:35.997Z,41.80
2018-07-05T10:02:02.421Z,41.00
2018-07-05T10:04:28.866Z,39.60
2018-07-05T10:06:55.282Z,39.50
2018-07-05T10:09:21.705Z,39.30
2018-07-05T10:11:48.141Z,39.10
2018-07-05T10:14:14.565Z,39.70
2018-07-05T10:16:40.960Z,39.60
2018-07-05T10:19:07.359Z,39.30
2018-07-05T10:21:34.768Z,38.40
2018-07-05T10:24:01.437Z,38.00
2018-07-05T10:26:27.874Z,37.50
2018-07-05T10:29:00.432Z,38.60
2018-07-05T10:31:33.139Z,38.90
2018-07-05T10:33:59.570Z,39.00
2018-07-05T10:36:25.989Z,39.10
2018-07-05T10:38:52.424Z,39.30
2018-07-05T10:41:24.957Z,39.10
2018-07-05T10:43:57.677Z,39.00
2018-07-05T10:46:31.012Z,39.50
2018-07-05T10:49:03.532Z,39.50
2018-07-05T10:51:36.253Z,38.80
2018-07-05T10:54:09.091Z,38.80
2018-07-05T10:56:42.513Z,39.90
2018-07-05T10:59:16.078Z,38.90
2018-07-05T11:01:49.221Z,39.00
2018-07-05T11:04:22.473Z,40.00
2018-07-05T11:06:55.179Z,39.20
2018-07-05T11:09:27.969Z,38.80
2018-07-05T11:12:00.621Z,38.70
2018-07-05T11:14:33.855Z,38.10
2018-07-05T11:17:06.561Z,38.20
2018-07-05T11:19:39.210Z,37.90
2018-07-05T11:22:12.535Z,38.30
2018-07-05T11:24:45.145Z,37.70
2018-07-05T11:27:17.662Z,37.70
2018-07-05T11:29:50.321Z,36.60
2018-07-05T11:32:22.964Z,36.10
2018-07-05T11:34:56.276Z,36.20
2018-07-05T11:37:28.845Z,37.10
2018-07-05T11:40:02.380Z,36.10
2018-07-05T11:42:35.330Z,33.70
2018-07-05T11:45:08.061Z,35.20
2018-07-05T11:47:40.739Z,36.10
2018-07-05T11:50:13.952Z,36.60
2018-07-05T11:52:46.609Z,36.80
2018-07-05T11:55:19.254Z,37.00
2018-07-05T11:57:51.816Z,36.50
2018-07-05T12:00:24.446Z,35.40
2018-07-05T12:02:57.653Z,35.60
2018-07-05T12:05:30.190Z,34.10
2018-07-05T12:08:02.916Z,34.40
2018-07-05T12:10:35.621Z,35.20
2018-07-05T12:13:08.332Z,33.90
2018-07-05T12:15:40.977Z,34.10
2018-07-05T12:18:13.656Z,33.30
2018-07-05T12:20:46.303Z,33.60
2018-07-05T12:23:19.903Z,34.30
2018-07-05T12:25:53.032Z,35.10
2018-07-05T12:28:26.277Z,34.70
2018-07-05T12:30:59.485Z,34.10
2018-07-05T12:33:32.216Z,34.30
2018-07-05T12:36:04.850Z,34.00
2018-07-05T12:38:37.321Z,32.80
2018-07-05T12:41:09.987Z,33.90
2018-07-05T12:43:42.628Z,33.70
2018-07-05T12:46:15.373Z,34.40
2018-07-05T12:48:47.840Z,34.50
2018-07-05T12:51:21.251Z,35.40
2018-07-05T12:53:53.817Z,33.50
2018-07-05T12:56:26.443Z,33.60
2018-07-05T12:58:59.105Z,33.10
2018-07-05T13:01:31.701Z,34.40
2018-07-05T13:04:04.474Z,35.00
2018-07-05T13:06:37.128Z,34.70
2018-07-05T13:09:09.878Z,34.60
2018-07-05T13:11:42.473Z,35.10
2018-07-05T13:14:15.186Z,33.40
2018-07-05T13:16:47.849Z,32.20
2018-07-05T13:19:20.576Z,32.40
2018-07-05T13:21:53.193Z,33.80
2018-07-05T13:24:25.861Z,32.50
2018-07-05T13:26:58.564Z,32.10
2018-07-05T13:29:31.317Z,32.20
2018-07-05T13:32:03.944Z,31.70
2018-07-05T13:34:37.267Z,32.80
2018-07-05T13:37:09.912Z,32.60
2018-07-05T13:39:42.673Z,33.10
2018-07-05T13:42:15.349Z,33.10
2018-07-05T13:44:48.295Z,33.30
2018-07-05T13:47:21.112Z,34.00
2018-07-05T13:49:53.783Z,34.20
2018-07-05T13:52:26.921Z,33.60
2018-07-05T13:54:59.440Z,34.80
2018-07-05T13:57:32.197Z,36.00
2018-07-05T14:00:04.831Z,35.40
2018-07-05T14:02:37.556Z,36.20
2018-07-05T14:05:10.277Z,36.20
2018-07-05T14:07:42.985Z,36.10
2018-07-05T14:10:15.650Z,36.60
2018-07-05T14:12:48.324Z,36.40
2018-07-05T14:15:20.990Z,36.50
2018-07-05T14:17:53.655Z,37.10
2018-07-05T14:20:26.459Z,37.20
2018-07-05T14:22:59.069Z,36.70
2018-07-05T14:25:31.717Z,37.30
2018-07-05T14:28:04.929Z,36.50
2018-07-05T14:30:37.424Z,36.50
2018-07-05T14:33:10.083Z,35.10
2018-07-05T14:35:42.842Z,35.50
2018-07-05T14:38:15.574Z,35.80
2018-07-05T14:40:48.293Z,35.80
2018-07-05T14:43:21.009Z,35.40
2018-07-05T14:45:53.648Z,35.20
2018-07-05T14:48:26.467Z,34.80
2018-07-05T14:50:59.069Z,34.30
2018-07-05T14:53:31.745Z,34.30
2018-07-05T14:56:04.452Z,34.90
2018-07-05T14:58:37.139Z,35.10
2018-07-05T15:01:09.804Z,35.50
2018-07-05T15:03:42.473Z,36.50
2018-07-05T15:06:15.169Z,36.90
2018-07-05T15:08:47.801Z,37.40
2018-07-05T15:11:20.933Z,37.70
2018-07-05T15:13:53.889Z,37.70
2018-07-05T15:16:26.523Z,38.00
2018-07-05T15:18:59.550Z,38.00
2018-07-05T15:21:32.109Z,38.60
2018-07-05T15:24:05.014Z,38.40
2018-07-05T15:26:37.712Z,38.70
2018-07-05T15:29:10.365Z,38.00
2018-07-05T15:31:43.120Z,38.10
2018-07-05T16:20:13.392Z,37.40
2018-07-05T16:22:46.121Z,47.00
2018-07-05T16:25:18.751Z,47.50
2018-07-05T16:27:51.388Z,47.90
2018-07-05T16:30:24.095Z,48.10
2018-07-05T16:32:57.950Z,48.70
2018-07-05T16:35:30.993Z,48.70
2018-07-05T16:38:03.996Z,49.00
2018-07-05T16:40:37.148Z,49.20
2018-07-05T16:43:09.668Z,49.60
2018-07-05T16:45:42.364Z,49.80
2018-07-05T16:48:15.009Z,50.20
2018-07-05T16:50:47.737Z,50.30
2018-07-05T16:53:20.328Z,50.40
2018-07-05T16:55:52.984Z,51.00
2018-07-05T16:58:25.622Z,51.20
2018-07-05T17:00:58.507Z,51.30
2018-07-05T17:03:31.100Z,51.60
2018-07-05T17:06:04.330Z,51.30
2018-07-05T17:08:36.981Z,51.50
2018-07-05T17:11:09.611Z,51.70
2018-07-05T17:13:42.251Z,51.80
2018-07-05T17:16:14.937Z,52.10
2018-07-05T17:18:47.658Z,52.50
2018-07-05T17:21:20.304Z,52.80
2018-07-05T17:23:53.013Z,52.90
2018-07-05T17:26:25.739Z,53.50
2018-07-05T17:28:58.166Z,53.00
2018-07-05T17:31:30.817Z,52.60
2018-07-05T17:34:03.477Z,52.90
2018-07-05T17:36:36.191Z,53.10
2018-07-05T17:39:08.953Z,53.90
2018-07-05T17:41:42.225Z,53.60
2018-07-05T17:44:14.748Z,53.80
2018-07-05T17:46:47.822Z,54.10
2018-07-05T17:49:20.403Z,54.20
2018-07-05T17:51:52.888Z,54.40
2018-07-05T17:54:25.373Z,54.10
2018-07-05T17:56:58.389Z,54.70
2018-07-05T17:59:31.655Z,54.80
2018-07-05T18:02:04.250Z,54.60
2018-07-05T18:04:36.933Z,54.70
2018-07-05T18:07:09.612Z,55.10
2018-07-05T18:09:42.200Z,54.70
2018-07-05T18:12:14.797Z,54.80
2018-07-05T18:14:48.050Z,54.80
2018-07-05T18:17:21.811Z,55.20
2018-07-05T18:19:54.466Z,55.70
2018-07-05T18:22:27.160Z,56.00
2018-07-05T18:27:27.312Z,56.40
2018-07-05T18:30:00.742Z,56.70
2018-07-05T18:32:33.400Z,57.10
2018-07-05T18:35:06.618Z,57.20
2018-07-05T18:37:39.309Z,57.30
2018-07-05T18:40:12.262Z,57.50
2018-07-05T18:42:44.922Z,57.60
2018-07-05T18:45:17.698Z,58.10
2018-07-05T18:47:50.250Z,58.30
2018-07-05T18:50:22.912Z,58.50
2018-07-05T18:52:55.692Z,58.80
2018-07-05T18:55:28.411Z,59.00
2018-07-05T18:58:01.196Z,59.20
2018-07-05T19:00:33.674Z,59.20
2018-07-05T19:03:07.280Z,59.60
2018-07-05T19:05:40.049Z,59.50
2018-07-05T19:08:12.663Z,59.50
2018-07-05T19:10:45.426Z,59.60
2018-07-05T19:13:18.477Z,59.70
2018-07-05T19:15:51.070Z,60.00
2018-07-05T19:18:23.746Z,60.70
2018-07-05T19:23:23.421Z,62.80
2018-07-05T19:25:56.330Z,63.40
2018-07-05T19:28:28.880Z,63.30
2018-07-05T19:31:01.492Z,64.00
2018-07-05T19:33:34.078Z,64.10
2018-07-05T19:36:07.595Z,64.00
2018-07-05T19:38:40.232Z,63.80
2018-07-05T19:41:12.757Z,64.00
2018-07-05T19:43:45.343Z,64.00
2018-07-05T19:46:18.597Z,64.30
2018-07-05T19:48:51.197Z,64.40
2018-07-05T19:51:23.939Z,64.20
2018-07-05T19:53:56.674Z,63.70
2018-07-05T19:56:29.468Z,63.50
2018-07-05T19:59:02.058Z,63.50
2018-07-05T20:01:34.639Z,63.60
2018-07-05T20:04:07.230Z,63.60
2018-07-05T20:06:40.493Z,63.50
2018-07-05T20:09:13.619Z,63.50
2018-07-05T20:11:52.147Z,63.70
2018-07-05T20:14:25.625Z,63.70
2018-07-05T20:16:58.389Z,64.10
2018-07-05T20:19:31.017Z,63.80
2018-07-05T20:22:06.449Z,63.00
2018-07-05T20:24:39.087Z,62.90
2018-07-05T20:27:12.249Z,62.80
2018-07-05T20:29:44.685Z,62.30
2018-07-05T20:32:18.019Z,62.30
2018-07-05T20:34:51.076Z,62.70
2018-07-05T20:39:51.767Z,61.30
2018-07-05T20:42:24.419Z,61.10
2018-07-05T20:54:42.184Z,61.10
2018-07-05T20:57:14.853Z,61.30
2018-07-05T20:59:47.524Z,61.40
2018-07-05T21:02:20.862Z,61.20
2018-07-05T21:04:53.337Z,61.20
2018-07-05T21:07:26.034Z,61.20
2018-07-05T21:09:58.815Z,61.20
2018-07-05T21:12:32.068Z,61.30
2018-07-05T21:15:04.565Z,61.70
2018-07-05T21:17:37.235Z,61.70
2018-07-05T21:20:10.068Z,62.00
2018-07-05T21:22:42.768Z,61.80
2018-07-05T21:25:15.441Z,62.10
2018-07-05T21:27:48.164Z,62.40
2018-07-05T21:32:47.630Z,62.70
2018-07-05T21:35:20.378Z,63.10
2018-07-05T21:37:53.036Z,63.20
2018-07-05T21:40:25.800Z,63.20
2018-07-05T21:42:58.632Z,63.20
2018-07-05T21:45:31.947Z,64.20
2018-07-05T21:48:04.708Z,63.20
2018-07-05T21:50:37.336Z,64.00
2018-07-05T21:53:09.934Z,63.30
2018-07-05T21:55:42.639Z,63.20
2018-07-05T21:58:15.390Z,62.70
2018-07-05T22:00:47.903Z,62.50
2018-07-05T22:03:20.477Z,62.90
2018-07-05T22:05:53.256Z,62.90
2018-07-05T22:08:25.809Z,62.70
2018-07-05T22:10:58.747Z,62.80
2018-07-05T22:13:31.670Z,62.90
2018-07-05T22:16:04.208Z,63.20
2018-07-05T22:18:42.642Z,63.50
2018-07-05T22:21:19.066Z,63.10
2018-07-05T22:23:57.403Z,63.90
2018-07-05T22:26:31.071Z,63.90
2018-07-05T22:29:09.456Z,63.80
2018-07-05T22:31:42.090Z,63.50
2018-07-05T22:34:14.712Z,64.30
2018-07-05T22:36:47.434Z,64.20
2018-07-05T22:39:20.051Z,64.10
2018-07-05T22:41:53.285Z,64.10
2018-07-05T22:44:25.884Z,64.30
2018-07-05T22:46:58.741Z,64.60
2018-07-05T22:49:31.176Z,64.60
2018-07-05T22:52:04.069Z,65.10
2018-07-05T22:54:36.998Z,64.80
2018-07-05T22:57:09.639Z,65.00
2018-07-05T22:59:42.864Z,64.80
2018-07-05T23:02:15.640Z,65.30
2018-07-05T23:04:48.244Z,65.00
2018-07-05T23:07:20.941Z,65.20
2018-07-05T23:09:53.957Z,65.40
2018-07-05T23:12:26.598Z,65.70
2018-07-05T23:14:59.306Z,65.60
2018-07-05T23:17:31.892Z,65.90
2018-07-05T23:20:05.185Z,66.50
2018-07-05T23:22:37.718Z,66.30
2018-07-05T23:25:10.819Z,66.10
2018-07-05T23:27:43.405Z,66.30
2018-07-05T23:30:16.123Z,66.50
2018-07-05T23:32:48.764Z,66.50
2018-07-05T23:35:21.384Z,66.70
2018-07-05T23:37:53.977Z,66.80
2018-07-05T23:40:26.728Z,66.90
2018-07-05T23:42:59.226Z,66.50
2018-07-05T23:45:32.149Z,66.60
2018-07-05T23:48:04.879Z,66.20
2018-07-05T23:50:37.392Z,66.00
2018-07-05T23:53:10.057Z,66.20
2018-07-05T23:55:42.793Z,66.50
2018-07-05T23:58:15.441Z,66.50
